Bow Valley, Alberta

4:41 PM MST on February 06, 2016 (GMT -0700)
Lac des Arcs | | Change Station
CLOSE
Current Station
Personal Weather Station
Location: Lac Des Arcs, ALBERTA
Elevation: 4288 ft
Nearby Weather Stations

Elev 4288 ft 51.05 °N, 115.16 °W | Updated 13 seconds ago

Clear
Clear
32.1 °F
Feels Like 32 °F
N
2.0
Wind Variable Wind from West
Gusts 4.0 mph

Tomorrow is forecast to be nearly the same temperature as today.

Today
High -- | Low -- °F
--% Chance of Precip.
Yesterday
High -- | Low -- °F
Precip. -- in
Pressure 30.06 in
Visibility 9.0 miles
Clouds Clear
Windchill 32 °F
Dew Point 13 °F
Humidity 44%
Rainfall 0.00 in
Snow Depth Not available.
8:09 AM 5:39 PM
Waning Crescent, 3% visible
METAR CYBW 062300Z AUTO 28017G29KT 9SM CLR 02/M11 A2993 RMK SLP178
Pressure 30.06 in
Visibility 9.0 miles
Clouds Clear
Windchill 32 °F
Dew Point 13 °F
Humidity 44%
Rainfall 0.00 in
Snow Depth Not available.
8:09 AM 5:39 PM
Waning Crescent, 3% visible
METAR CYBW 062300Z AUTO 28017G29KT 9SM CLR 02/M11 A2993 RMK SLP178

10-Day Weather Forecast

No radar image for this location.
×

Almanac

Astronomy

Feb. 06, 2016 Rise Set
Actual Time
Civil Twilight
Nautical Twilight
Astronomical Twilight
Moon
Length of Visible Light
Length of Day
Tomorrow will be .
, % of the Moon is Illuminated

Today's Extremes

Country Highs Country Lows

Community

WunderPhotos

Upload Photos

1,891,098 photos uploaded!

WunderBlog® & News

Nearby

Air Quality

  Air Quality AQ Index Pollutant
Not available.

Snow Depth

Station Depth Elevation

Earthquake Activity

City Distance Mag. Time & Date
Minimum magnitude displayed is 2.5.

Coastal Water Temperatures

Place Temperature

Stations

Nearby Weather Stations

Station Location Temp. Windchill Dew Point Humidity Wind Precip. Elev Updated Type
                   

Watches & Warnings

There are currently no watches in effect.